createdAt,value
2019-03-27T00:02:02.104Z,22.97
2019-03-27T00:04:30.688Z,22.53
2019-03-27T00:06:59.099Z,24.37
2019-03-27T00:09:27.510Z,24.80
2019-03-27T00:11:55.903Z,24.87
2019-03-27T00:14:24.396Z,24.37
2019-03-27T00:16:52.882Z,22.60
2019-03-27T00:19:21.299Z,23.87
2019-03-27T00:21:49.704Z,22.07
2019-03-27T00:24:18.116Z,23.67
2019-03-27T00:26:46.612Z,21.43
2019-03-27T00:29:15.032Z,22.77
2019-03-27T00:31:43.437Z,22.10
2019-03-27T00:34:11.834Z,25.83
2019-03-27T00:36:40.244Z,22.70
2019-03-27T00:39:08.639Z,23.37
2019-03-27T00:41:37.062Z,23.30
2019-03-27T00:44:05.462Z,26.37
2019-03-27T00:46:33.879Z,22.83
2019-03-27T00:49:02.284Z,23.57
2019-03-27T00:51:30.731Z,24.40
2019-03-27T00:53:59.205Z,23.00
2019-03-27T00:56:27.625Z,21.30
2019-03-27T00:58:56.052Z,24.10
2019-03-27T01:01:24.593Z,26.73
2019-03-27T01:03:53.046Z,29.17
2019-03-27T01:06:21.465Z,27.23
2019-03-27T01:08:49.901Z,28.20
2019-03-27T01:11:18.373Z,31.60
2019-03-27T01:13:46.955Z,25.23
2019-03-27T01:16:15.408Z,26.43
2019-03-27T01:18:43.802Z,24.47
2019-03-27T01:21:12.267Z,23.00
2019-03-27T01:23:40.674Z,34.20
2019-03-27T01:26:09.254Z,34.27
2019-03-27T01:28:37.752Z,33.87
2019-03-27T01:31:06.298Z,31.87
2019-03-27T01:33:34.794Z,29.73
2019-03-27T01:36:03.195Z,27.20
2019-03-27T01:38:31.633Z,25.17
2019-03-27T01:41:00.107Z,20.83
2019-03-27T01:43:28.519Z,22.83
2019-03-27T01:45:56.929Z,22.23
2019-03-27T01:48:25.365Z,21.00
2019-03-27T01:50:53.778Z,22.83
2019-03-27T01:53:22.220Z,21.83
2019-03-27T01:55:50.613Z,26.30
2019-03-27T01:58:19.105Z,24.90
2019-03-27T02:00:47.501Z,21.30
2019-03-27T02:03:15.947Z,20.83
2019-03-27T02:05:44.350Z,20.33
2019-03-27T02:08:12.814Z,19.67
2019-03-27T02:10:41.282Z,19.07
2019-03-27T02:13:09.790Z,22.03
2019-03-27T02:15:38.194Z,22.03
2019-03-27T02:18:06.890Z,21.00
2019-03-27T02:20:35.312Z,18.50
2019-03-27T02:23:03.818Z,22.20
2019-03-27T02:25:32.232Z,22.33
2019-03-27T02:28:00.655Z,23.17
2019-03-27T02:30:29.084Z,19.77
2019-03-27T02:32:57.507Z,20.20
2019-03-27T02:35:25.921Z,24.90
2019-03-27T02:37:54.334Z,21.63
2019-03-27T02:40:22.787Z,19.60
2019-03-27T02:42:51.258Z,19.03
2019-03-27T02:45:19.781Z,16.40
2019-03-27T02:47:48.247Z,18.00
2019-03-27T02:50:16.651Z,17.97
2019-03-27T02:52:45.143Z,20.47
2019-03-27T02:55:13.630Z,20.43
2019-03-27T02:57:42.193Z,20.53
2019-03-27T03:00:14.462Z,21.43
2019-03-27T03:02:42.867Z,19.50
2019-03-27T03:05:11.750Z,20.20
2019-03-27T03:07:40.306Z,20.43
2019-03-27T03:10:09.976Z,24.07
2019-03-27T03:12:38.373Z,22.10
2019-03-27T03:15:07.807Z,19.60
2019-03-27T03:17:36.209Z,19.00
2019-03-27T03:20:06.773Z,20.10
2019-03-27T03:22:35.208Z,21.63
2019-03-27T03:25:04.329Z,18.30
2019-03-27T03:27:32.704Z,20.97
2019-03-27T03:30:01.172Z,20.73
2019-03-27T03:32:29.658Z,20.60
2019-03-27T03:34:59.277Z,18.30
2019-03-27T03:37:27.696Z,20.10
2019-03-27T03:39:56.108Z,21.57
2019-03-27T03:42:24.515Z,21.53
2019-03-27T03:44:52.909Z,20.70
2019-03-27T03:47:21.438Z,19.73
2019-03-27T03:49:49.834Z,20.87
2019-03-27T03:52:20.388Z,18.47
2019-03-27T03:54:49.617Z,22.73
2019-03-27T03:57:19.369Z,24.30
2019-03-27T03:59:48.477Z,22.70
2019-03-27T04:02:17.215Z,25.50
2019-03-27T04:04:48.176Z,28.33
2019-03-27T04:07:16.920Z,23.63
2019-03-27T04:09:45.325Z,24.73
2019-03-27T04:12:13.727Z,25.77
2019-03-27T04:14:42.121Z,24.87
2019-03-27T04:17:17.535Z,24.37
2019-03-27T04:19:40.755Z,26.33
2019-03-27T04:22:09.193Z,24.93
2019-03-27T04:24:37.592Z,23.87
2019-03-27T04:28:34.553Z,23.70
2019-03-27T04:31:02.953Z,25.77
2019-03-27T04:33:31.435Z,22.70
2019-03-27T04:35:59.841Z,21.63
2019-03-27T04:38:28.267Z,23.00
2019-03-27T04:40:56.664Z,21.33
2019-03-27T04:43:25.122Z,23.63
2019-03-27T04:45:53.647Z,21.93
2019-03-27T04:48:22.079Z,20.80
2019-03-27T04:50:50.483Z,21.00
2019-03-27T04:53:18.903Z,22.27
2019-03-27T04:55:47.302Z,21.00
2019-03-27T04:58:15.715Z,19.33
2019-03-27T05:00:44.114Z,21.90
2019-03-27T05:03:12.604Z,19.83
2019-03-27T05:05:40.994Z,23.17
2019-03-27T05:08:09.459Z,20.67
2019-03-27T05:10:37.868Z,18.93
2019-03-27T05:13:06.272Z,21.30
2019-03-27T05:15:34.698Z,18.63
2019-03-27T05:18:03.087Z,23.77
2019-03-27T05:20:31.503Z,20.80
2019-03-27T05:22:59.905Z,20.13
2019-03-27T05:25:28.364Z,20.80
2019-03-27T05:27:56.779Z,23.27
2019-03-27T05:30:27.319Z,22.33
2019-03-27T05:32:56.368Z,20.27
2019-03-27T05:35:24.781Z,22.83
2019-03-27T05:37:53.197Z,22.07
2019-03-27T05:40:21.703Z,20.93
2019-03-27T05:43:00.015Z,23.93
2019-03-27T05:45:20.284Z,24.23
2019-03-27T05:47:58.891Z,26.10
2019-03-27T05:50:18.885Z,28.17
2019-03-27T05:52:47.295Z,30.03
2019-03-27T05:55:15.698Z,36.33
2019-03-27T05:57:44.107Z,36.50
2019-03-27T06:00:14.169Z,36.20
2019-03-27T06:02:42.560Z,31.80
2019-03-27T06:05:10.996Z,36.50
2019-03-27T06:07:39.404Z,34.83
2019-03-27T06:10:08.046Z,39.07
2019-03-27T06:12:36.448Z,36.97
2019-03-27T06:15:06.714Z,37.13
2019-03-27T06:17:35.125Z,32.80
2019-03-27T06:20:04.404Z,33.83
2019-03-27T06:22:32.811Z,35.50
2019-03-27T06:25:01.219Z,28.43
2019-03-27T06:27:29.648Z,29.37
2019-03-27T06:29:58.120Z,23.63
2019-03-27T06:32:26.547Z,28.47
2019-03-27T06:34:55.027Z,26.50
2019-03-27T06:37:23.452Z,22.93
2019-03-27T06:39:51.842Z,20.30
2019-03-27T06:42:20.333Z,28.83
2019-03-27T06:44:48.726Z,30.97
2019-03-27T06:47:17.160Z,26.60
2019-03-27T06:49:45.616Z,31.30
2019-03-27T06:52:14.120Z,34.70
2019-03-27T06:54:42.586Z,28.17
2019-03-27T06:57:11.058Z,32.17
2019-03-27T06:59:39.590Z,37.23
2019-03-27T07:02:08.151Z,40.97
2019-03-27T07:04:36.609Z,25.50
2019-03-27T07:07:05.049Z,25.27
2019-03-27T07:09:33.463Z,27.53
2019-03-27T07:12:01.941Z,25.67
2019-03-27T07:14:30.362Z,22.87
2019-03-27T07:16:58.769Z,21.30
2019-03-27T07:19:27.172Z,20.40
2019-03-27T07:21:55.582Z,25.40
2019-03-27T07:24:24.000Z,19.67
2019-03-27T07:26:52.402Z,20.50
2019-03-27T07:29:20.946Z,21.33
2019-03-27T07:31:49.360Z,21.77
2019-03-27T07:34:17.803Z,26.73
2019-03-27T07:36:46.221Z,28.77
2019-03-27T07:39:14.637Z,23.97
2019-03-27T07:41:43.045Z,27.43
2019-03-27T07:44:11.494Z,25.37
2019-03-27T07:46:39.916Z,25.48
2019-03-27T07:49:08.366Z,25.37
2019-03-27T07:51:36.767Z,24.70
2019-03-27T07:54:05.186Z,20.40
2019-03-27T07:56:33.771Z,23.18
2019-03-27T07:59:02.318Z,20.12
2019-03-27T08:01:30.749Z,18.20
2019-03-27T08:03:59.315Z,20.12
2019-03-27T08:06:27.736Z,22.15
2019-03-27T08:08:56.136Z,21.55
2019-03-27T08:11:24.735Z,16.80
2019-03-27T08:13:53.129Z,15.25
2019-03-27T08:16:21.545Z,14.33
2019-03-27T08:18:49.964Z,18.40
2019-03-27T08:21:18.384Z,16.27
2019-03-27T08:23:46.789Z,18.55
2019-03-27T08:26:15.204Z,22.35
2019-03-27T08:28:43.671Z,13.03
2019-03-27T08:31:12.070Z,13.85
2019-03-27T08:33:40.482Z,11.80
2019-03-27T08:36:08.940Z,18.80
2019-03-27T08:38:37.363Z,12.05
2019-03-27T08:41:04.761Z,15.55
2019-03-27T08:43:33.114Z,10.20
2019-03-27T08:46:01.599Z,13.15
2019-03-27T08:48:45.967Z,10.90
2019-03-27T08:51:14.394Z,11.38
2019-03-27T08:53:42.824Z,10.75
2019-03-27T08:56:11.233Z,10.43
2019-03-27T08:58:39.696Z,9.25
2019-03-27T09:01:08.212Z,9.78
2019-03-27T09:03:36.589Z,8.58
2019-03-27T09:06:05.226Z,8.00
2019-03-27T09:08:33.638Z,9.28
2019-03-27T09:11:04.608Z,9.43
2019-03-27T09:13:32.190Z,9.05
2019-03-27T09:16:00.600Z,7.40
2019-03-27T09:18:28.989Z,7.50
2019-03-27T09:20:57.564Z,7.97
2019-03-27T09:23:27.008Z,7.95
2019-03-27T09:25:55.559Z,8.33
2019-03-27T09:28:24.001Z,6.65
2019-03-27T09:30:52.391Z,10.28
2019-03-27T09:33:20.809Z,7.28
2019-03-27T09:35:49.423Z,7.62
2019-03-27T09:38:17.851Z,5.42
2019-03-27T09:40:46.894Z,5.87
2019-03-27T09:43:15.317Z,5.37
2019-03-27T09:45:43.732Z,7.22
2019-03-27T09:48:12.157Z,6.97
2019-03-27T09:50:40.571Z,5.05
2019-03-27T09:53:09.009Z,7.95
2019-03-27T09:55:37.414Z,5.25
2019-03-27T09:58:05.821Z,6.17
2019-03-27T10:00:46.104Z,6.20
2019-03-27T10:03:14.630Z,8.80
2019-03-27T10:05:43.070Z,8.15
2019-03-27T10:08:11.515Z,7.07
2019-03-27T10:10:39.922Z,9.23
2019-03-27T10:13:08.330Z,6.80
2019-03-27T10:15:36.807Z,8.27
2019-03-27T10:18:05.392Z,6.47
2019-03-27T10:20:33.811Z,8.20
2019-03-27T10:23:02.219Z,7.30
2019-03-27T10:25:30.640Z,5.80
2019-03-27T10:27:59.050Z,4.80
2019-03-27T10:30:27.482Z,5.13
2019-03-27T10:32:55.955Z,5.77
2019-03-27T10:35:24.548Z,5.00
2019-03-27T10:37:53.055Z,4.63
2019-03-27T10:40:21.557Z,5.33
2019-03-27T10:42:49.962Z,4.60
2019-03-27T10:45:18.451Z,6.33
2019-03-27T10:47:47.012Z,5.53
2019-03-27T10:50:18.494Z,4.43
2019-03-27T10:52:46.893Z,4.07
2019-03-27T10:55:15.505Z,6.47
2019-03-27T10:57:43.906Z,6.80
2019-03-27T11:00:12.533Z,4.40
2019-03-27T11:02:40.929Z,4.10
2019-03-27T11:05:09.507Z,4.37
2019-03-27T11:07:37.904Z,6.20
2019-03-27T11:10:08.819Z,5.90
2019-03-27T11:12:37.383Z,7.63
2019-03-27T11:15:07.792Z,5.40
2019-03-27T11:17:36.198Z,5.67
2019-03-27T11:20:06.966Z,4.20
2019-03-27T11:22:35.429Z,5.70
2019-03-27T11:25:04.870Z,4.63
2019-03-27T11:27:33.272Z,4.47
2019-03-27T11:30:02.045Z,6.00
2019-03-27T11:32:30.477Z,4.20
2019-03-27T11:34:58.880Z,7.80
2019-03-27T11:37:27.326Z,6.10
2019-03-27T11:39:55.732Z,6.17
2019-03-27T11:42:24.248Z,4.97
2019-03-27T11:44:52.660Z,6.43
2019-03-27T11:47:21.109Z,7.03
2019-03-27T11:49:49.504Z,4.57
2019-03-27T11:52:17.913Z,4.40
2019-03-27T11:54:46.319Z,4.00
2019-03-27T11:57:14.821Z,4.07
2019-03-27T11:59:53.180Z,4.57
2019-03-27T12:02:13.469Z,5.73
2019-03-27T12:04:41.875Z,5.70
2019-03-27T12:07:10.759Z,4.27
2019-03-27T12:09:39.189Z,5.80
2019-03-27T12:12:07.676Z,6.13
2019-03-27T12:14:36.117Z,6.20
2019-03-27T12:17:04.653Z,5.22
2019-03-27T12:19:33.051Z,4.17
2019-03-27T12:22:01.452Z,4.65
2019-03-27T12:24:29.876Z,3.98
2019-03-27T12:26:58.424Z,3.45
2019-03-27T12:29:26.852Z,3.08
2019-03-27T12:31:55.216Z,6.28
2019-03-27T12:34:23.634Z,4.22
2019-03-27T12:36:52.046Z,4.00
2019-03-27T12:39:20.466Z,2.15
2019-03-27T12:41:48.899Z,3.00
2019-03-27T12:44:17.322Z,3.80
2019-03-27T12:46:45.745Z,3.70
2019-03-27T12:49:14.146Z,4.05
2019-03-27T12:51:42.637Z,3.90
2019-03-27T12:54:11.138Z,3.67
2019-03-27T12:56:39.549Z,7.40
2019-03-27T12:59:08.092Z,2.70
2019-03-27T13:01:36.695Z,1.87
2019-03-27T13:04:05.437Z,3.22
2019-03-27T13:06:33.920Z,3.35
2019-03-27T13:09:02.482Z,7.12
2019-03-27T13:11:30.927Z,4.37
2019-03-27T13:13:59.340Z,3.15
2019-03-27T13:16:27.741Z,3.77
2019-03-27T13:18:56.200Z,3.33
2019-03-27T13:21:26.513Z,2.98
2019-03-27T13:23:55.012Z,4.37
2019-03-27T13:26:23.417Z,3.07
2019-03-27T13:28:51.862Z,3.47
2019-03-27T13:31:20.309Z,3.50
2019-03-27T13:33:50.327Z,2.70
2019-03-27T13:36:19.160Z,2.27
2019-03-27T13:38:47.578Z,4.23
2019-03-27T13:41:15.985Z,2.00
2019-03-27T13:43:44.492Z,4.27
2019-03-27T13:46:12.990Z,2.07
2019-03-27T13:48:41.645Z,3.10
2019-03-27T13:51:10.125Z,4.10
2019-03-27T13:53:38.526Z,2.00
2019-03-27T13:56:06.994Z,2.33
2019-03-27T13:58:35.406Z,3.03
2019-03-27T14:01:04.003Z,1.50
2019-03-27T14:03:32.399Z,1.87
2019-03-27T14:06:00.891Z,2.33
2019-03-27T14:08:29.474Z,3.83
2019-03-27T14:10:58.038Z,5.27
2019-03-27T14:13:26.471Z,2.20
2019-03-27T14:15:54.877Z,2.10
2019-03-27T14:18:23.346Z,2.77
2019-03-27T14:20:51.703Z,1.87
2019-03-27T14:23:20.134Z,2.23
2019-03-27T14:25:48.519Z,3.10
2019-03-27T14:28:16.930Z,2.37
2019-03-27T14:31:04.672Z,1.73
2019-03-27T14:33:33.061Z,2.47
2019-03-27T14:36:01.553Z,2.10
2019-03-27T14:38:30.094Z,1.90
2019-03-27T14:40:58.575Z,2.67
2019-03-27T14:43:27.392Z,1.90
2019-03-27T14:45:55.895Z,4.47
2019-03-27T14:48:24.428Z,2.92
2019-03-27T14:50:52.813Z,2.90
2019-03-27T14:53:21.363Z,2.10
2019-03-27T14:55:50.431Z,2.08
2019-03-27T14:58:18.982Z,2.25
2019-03-27T15:00:47.462Z,2.22
2019-03-27T15:03:15.981Z,2.40
2019-03-27T15:05:44.630Z,3.20
2019-03-27T15:08:13.222Z,2.87
2019-03-27T15:10:41.721Z,4.45
2019-03-27T15:13:10.427Z,3.00
2019-03-27T15:15:38.858Z,2.00
2019-03-27T15:18:07.436Z,3.90
2019-03-27T15:20:35.900Z,4.10
2019-03-27T15:23:04.413Z,1.77
2019-03-27T15:25:32.838Z,3.20
2019-03-27T15:28:01.334Z,2.57
2019-03-27T15:30:29.888Z,3.10
2019-03-27T15:32:58.283Z,2.40
2019-03-27T15:35:26.718Z,3.67
2019-03-27T15:37:55.119Z,2.40
2019-03-27T15:40:29.552Z,2.83
2019-03-27T15:42:58.027Z,3.13
2019-03-27T15:45:26.467Z,3.00
2019-03-27T15:47:54.959Z,3.43
2019-03-27T15:50:23.448Z,1.90
2019-03-27T15:52:51.935Z,1.43
2019-03-27T15:55:20.438Z,4.77
2019-03-27T15:57:48.841Z,4.17
2019-03-27T16:00:17.856Z,3.00
2019-03-27T16:02:46.282Z,3.77
2019-03-27T16:05:14.768Z,4.37
2019-03-27T16:07:43.254Z,3.47
2019-03-27T16:10:11.997Z,2.83
2019-03-27T16:12:40.436Z,2.90
2019-03-27T16:15:09.849Z,4.37
2019-03-27T16:17:38.348Z,4.40
2019-03-27T16:20:09.863Z,4.20
2019-03-27T16:22:50.359Z,2.67
2019-03-27T16:25:11.126Z,3.30
2019-03-27T16:27:39.663Z,4.00
2019-03-27T16:30:08.834Z,4.57
2019-03-27T16:32:37.560Z,5.47
2019-03-27T16:35:07.784Z,4.00
2019-03-27T16:37:36.204Z,2.40
2019-03-27T16:40:06.168Z,2.67
2019-03-27T16:42:34.882Z,5.03
2019-03-27T16:45:04.856Z,2.60
2019-03-27T16:47:33.307Z,3.57
2019-03-27T16:50:01.700Z,3.47
2019-03-27T16:52:30.133Z,6.00
2019-03-27T16:54:58.530Z,8.27
2019-03-27T16:57:26.980Z,5.80
2019-03-27T16:59:55.439Z,4.53
2019-03-27T17:02:23.918Z,5.73
2019-03-27T17:04:52.378Z,6.77
2019-03-27T17:07:20.800Z,4.90
2019-03-27T17:09:49.266Z,3.13
2019-03-27T17:12:17.673Z,9.40
2019-03-27T17:14:46.324Z,19.77
2019-03-27T17:17:14.790Z,4.63
2019-03-27T17:19:43.226Z,3.13
2019-03-27T17:22:19.502Z,4.87
2019-03-27T17:24:41.782Z,3.87
2019-03-27T17:27:10.227Z,3.07
2019-03-27T17:29:38.615Z,4.40
2019-03-27T17:32:07.063Z,12.27
2019-03-27T17:34:35.575Z,10.23
2019-03-27T17:37:04.022Z,13.33
2019-03-27T17:39:32.770Z,9.67
2019-03-27T17:42:01.172Z,8.93
2019-03-27T17:44:29.593Z,13.00
2019-03-27T17:46:58.008Z,16.53
2019-03-27T17:49:26.452Z,12.00
2019-03-27T17:51:54.866Z,32.53
2019-03-27T17:54:23.310Z,18.93
2019-03-27T17:56:51.790Z,8.57
2019-03-27T17:59:20.265Z,7.23
2019-03-27T18:01:48.740Z,3.90
2019-03-27T18:04:17.221Z,3.47
2019-03-27T18:06:45.722Z,6.90
2019-03-27T18:09:14.176Z,5.87
2019-03-27T18:11:42.651Z,5.97
2019-03-27T18:14:11.093Z,6.00
2019-03-27T18:16:39.538Z,9.00
2019-03-27T18:19:08.004Z,8.63
2019-03-27T18:21:36.450Z,6.00
2019-03-27T18:24:04.912Z,6.27
2019-03-27T18:26:33.325Z,6.87
2019-03-27T18:29:01.718Z,6.60
2019-03-27T18:31:30.223Z,7.20
2019-03-27T18:33:58.659Z,6.57
2019-03-27T18:36:27.073Z,4.60
2019-03-27T18:38:55.530Z,4.37
2019-03-27T18:41:23.981Z,5.33
2019-03-27T18:43:52.385Z,7.70
2019-03-27T18:46:20.832Z,7.70
2019-03-27T18:48:49.289Z,5.23
2019-03-27T18:51:17.713Z,10.70
2019-03-27T18:53:59.060Z,10.03
2019-03-27T18:56:16.329Z,8.90
2019-03-27T18:58:44.736Z,10.70
2019-03-27T19:01:13.130Z,10.17
2019-03-27T19:03:41.610Z,15.60
2019-03-27T19:06:10.115Z,16.40
2019-03-27T19:08:38.553Z,21.83
2019-03-27T19:11:07.018Z,18.00
2019-03-27T19:13:35.436Z,18.13
2019-03-27T19:16:04.012Z,12.77
2019-03-27T19:18:32.619Z,8.27
2019-03-27T19:21:01.042Z,10.83
2019-03-27T19:23:29.449Z,6.70
2019-03-27T19:25:57.991Z,12.43
2019-03-27T19:28:26.461Z,10.20
2019-03-27T19:30:54.877Z,11.80
2019-03-27T19:33:23.363Z,9.80
2019-03-27T19:35:51.842Z,17.37
2019-03-27T19:38:20.470Z,13.63
2019-03-27T19:40:48.943Z,11.90
2019-03-27T19:43:17.349Z,9.80
2019-03-27T19:45:46.402Z,8.27
2019-03-27T19:48:14.804Z,7.57
2019-03-27T19:50:43.385Z,8.33
2019-03-27T19:53:11.780Z,11.63
2019-03-27T19:55:40.362Z,10.73
2019-03-27T19:58:08.791Z,9.10
2019-03-27T20:00:37.488Z,10.87
2019-03-27T20:03:05.960Z,10.43
2019-03-27T20:05:34.546Z,9.60
2019-03-27T20:08:03.046Z,9.90
2019-03-27T20:10:31.557Z,9.53
2019-03-27T20:13:02.975Z,10.77
2019-03-27T20:15:31.406Z,11.07
2019-03-27T20:17:59.837Z,9.87
2019-03-27T20:20:28.340Z,10.80
2019-03-27T20:22:56.752Z,10.13
2019-03-27T20:25:25.283Z,9.67
2019-03-27T20:27:53.784Z,9.37
2019-03-27T20:30:23.049Z,7.87
2019-03-27T20:32:51.513Z,8.87
2019-03-27T20:35:22.786Z,9.53
2019-03-27T20:37:50.183Z,8.10
2019-03-27T20:40:18.912Z,10.90
2019-03-27T20:42:47.349Z,10.03
2019-03-27T20:45:15.993Z,10.57
2019-03-27T20:47:44.411Z,10.13
2019-03-27T20:50:13.158Z,11.17
2019-03-27T20:52:41.667Z,9.43
2019-03-27T20:55:10.494Z,11.10
2019-03-27T20:57:39.104Z,9.67
2019-03-27T21:03:34.490Z,8.20
2019-03-27T21:06:03.111Z,6.37
2019-03-27T21:08:31.582Z,6.83
2019-03-27T21:11:00.107Z,9.53
2019-03-27T21:13:28.600Z,7.07
2019-03-27T21:15:57.070Z,8.37
2019-03-27T21:18:25.495Z,7.97
2019-03-27T21:20:53.913Z,10.03
2019-03-27T21:23:22.330Z,10.87
2019-03-27T21:25:50.857Z,9.03
2019-03-27T21:28:19.457Z,11.47
2019-03-27T21:30:47.958Z,8.60
2019-03-27T21:33:16.540Z,9.10
2019-03-27T21:35:44.947Z,8.30
2019-03-27T21:38:13.388Z,8.97
2019-03-27T21:40:42.036Z,10.50
2019-03-27T21:43:10.481Z,10.13
2019-03-27T21:45:38.901Z,9.87
2019-03-27T21:48:07.329Z,12.80
2019-03-27T21:50:35.716Z,12.23
2019-03-27T21:53:04.235Z,12.93
2019-03-27T21:55:42.130Z,8.27
2019-03-27T21:58:02.799Z,8.70
2019-03-27T22:00:39.587Z,7.13
2019-03-27T22:03:08.660Z,6.87
2019-03-27T22:05:37.211Z,8.33
2019-03-27T22:08:05.638Z,8.00
2019-03-27T22:10:34.103Z,9.20
2019-03-27T22:13:02.523Z,11.60
2019-03-27T22:15:30.961Z,11.13
2019-03-27T22:17:59.350Z,10.77
2019-03-27T22:20:27.771Z,10.57
2019-03-27T22:22:56.175Z,11.03
2019-03-27T22:25:35.378Z,9.77
2019-03-27T22:27:54.721Z,9.70
2019-03-27T22:30:23.138Z,10.93
2019-03-27T22:32:51.600Z,9.63
2019-03-27T22:35:20.031Z,10.17
2019-03-27T22:37:48.466Z,12.90
2019-03-27T22:40:16.956Z,9.70
2019-03-27T22:42:45.345Z,9.70
2019-03-27T22:45:14.136Z,9.03
2019-03-27T22:47:42.522Z,10.33
2019-03-27T22:50:11.219Z,9.63
2019-03-27T22:52:39.643Z,10.67
2019-03-27T22:55:08.972Z,10.67
2019-03-27T22:57:37.369Z,9.80
2019-03-27T23:00:10.607Z,10.63
2019-03-27T23:02:39.144Z,10.60
2019-03-27T23:05:07.781Z,9.00
2019-03-27T23:07:36.523Z,9.53
2019-03-27T23:10:06.734Z,12.27
2019-03-27T23:12:35.155Z,11.07
2019-03-27T23:15:05.103Z,7.77
2019-03-27T23:17:33.496Z,10.40
2019-03-27T23:20:01.897Z,7.87
2019-03-27T23:22:30.335Z,9.10
2019-03-27T23:24:58.723Z,8.93
2019-03-27T23:27:27.207Z,8.33
2019-03-27T23:29:55.615Z,11.73
2019-03-27T23:32:24.024Z,8.13
2019-03-27T23:34:52.414Z,9.27
2019-03-27T23:37:20.858Z,7.83
2019-03-27T23:39:49.255Z,9.93
2019-03-27T23:42:17.671Z,9.17
2019-03-27T23:44:46.061Z,8.67
2019-03-27T23:47:14.552Z,9.33
2019-03-27T23:49:43.019Z,7.43
2019-03-27T23:52:11.434Z,9.17
2019-03-27T23:54:39.840Z,8.87
2019-03-27T23:57:08.263Z,9.10
2019-03-27T23:59:36.776Z,10.87
